Time;durP1;ratioP1;P1;durP2;ratioP2;P2;SDS_P1;SDS_P2;PMS_P1;PMS_P2;Temp;Humidity;BMP_temperature;BMP_pressure;BME280_temperature;BME280_humidity;BME280_pressure;Samples;Min_cycle;Max_cycle;Signal;HPM_P1;HPM_P2
2022/01/13 00:01:57;;;;;;;;;;;4.00;87.00;;;;;;5016756;28;20057;-88
2022/01/13 00:04:25;;;;;;;114.60;40.75;;;4.00;87.00;;;;;;5013951;28;20374;-87
2022/01/13 00:06:52;;;;;;;125.47;41.60;;;4.00;87.00;;;;;;5029680;28;20049;-88
2022/01/13 00:09:19;;;;;;;110.75;41.58;;;4.00;87.00;;;;;;5034869;28;20056;-88
2022/01/13 00:11:48;;;;;;;125.18;42.35;;;4.00;87.00;;;;;;5034637;28;20087;-88
2022/01/13 00:25:03;;;;;;;124.05;40.75;;;4.00;87.00;;;;;;5030711;28;20056;-87
2022/01/13 00:27:30;;;;;;;130.35;42.83;;;3.90;87.00;;;;;;5035201;28;20046;-88
2022/01/13 00:30:00;;;;;;;127.82;43.45;;;3.90;87.00;;;;;;5034381;28;20479;-89
2022/01/13 00:32:30;;;;;;;131.88;44.05;;;3.90;87.00;;;;;;5034317;28;20045;-87
2022/01/13 00:34:58;;;;;;;123.85;42.75;;;3.90;87.00;;;;;;5034446;28;20056;-87
2022/01/13 00:37:25;;;;;;;117.80;43.42;;;3.90;87.00;;;;;;5018508;28;20044;-88
2022/01/13 00:39:52;;;;;;;121.40;43.42;;;3.90;87.00;;;;;;5033654;28;20045;-87
2022/01/13 00:42:22;;;;;;;123.60;44.20;;;3.90;87.10;;;;;;5034196;28;20494;-87
2022/01/13 00:44:49;;;;;;;133.63;42.92;;;3.90;87.10;;;;;;5033073;28;20041;-89
2022/01/13 00:47:16;;;;;;;122.70;41.92;;;3.90;87.10;;;;;;5066004;28;20057;-87
2022/01/13 00:49:43;;;;;;;133.98;44.15;;;3.90;87.00;;;;;;5034140;28;20041;-88
2022/01/13 00:52:11;;;;;;;130.88;44.75;;;3.90;87.10;;;;;;5033785;28;20076;-87
2022/01/13 00:54:40;;;;;;;126.35;43.28;;;3.90;87.00;;;;;;5032229;28;20053;-88
2022/01/13 00:57:08;;;;;;;128.48;43.08;;;3.90;87.00;;;;;;5033904;28;20041;-88
2022/01/13 00:59:35;;;;;;;116.53;42.88;;;3.90;87.00;;;;;;5034054;28;20041;-88
2022/01/13 01:02:02;;;;;;;127.47;42.47;;;3.90;87.00;;;;;;5065535;28;20500;-88
2022/01/13 01:04:30;;;;;;;125.45;43.22;;;3.90;87.00;;;;;;5033292;28;20048;-87
2022/01/13 01:06:57;;;;;;;125.65;42.33;;;3.90;87.00;;;;;;5032903;28;20363;-87
2022/01/13 01:09:39;;;;;;;133.07;43.38;;;3.90;87.00;;;;;;5032174;28;20048;-88
2022/01/13 01:12:09;;;;;;;135.38;43.67;;;3.90;87.00;;;;;;5035085;28;20417;-89
2022/01/13 01:14:41;;;;;;;127.43;43.50;;;3.90;87.00;;;;;;5032692;28;20422;-88
2022/01/13 01:17:08;;;;;;;136.75;42.03;;;3.90;87.00;;;;;;5032513;28;20050;-88
2022/01/13 01:19:37;;;;;;;127.85;43.10;;;3.80;87.00;;;;;;5032321;28;20045;-87
2022/01/13 01:22:28;;;;;;;142.57;43.42;;;3.80;87.00;;;;;;5032624;28;20057;-87
2022/01/13 01:27:25;;;;;;;135.20;42.47;;;3.80;87.00;;;;;;5033509;28;20045;-87
2022/01/13 01:30:10;;;;;;;138.63;44.42;;;3.80;87.00;;;;;;5033179;28;20056;-88
2022/01/13 01:32:39;;;;;;;137.85;44.30;;;3.80;87.00;;;;;;5033583;28;20403;-88
2022/01/13 01:35:13;;;;;;;131.45;44.40;;;3.80;87.00;;;;;;5033094;28;20048;-88
2022/01/13 01:37:42;;;;;;;132.27;42.83;;;3.80;87.00;;;;;;5033566;28;20056;-88
2022/01/13 01:40:11;;;;;;;127.75;41.50;;;3.70;86.90;;;;;;5033257;28;20045;-88
2022/01/13 01:42:39;;;;;;;152.93;44.22;;;3.70;86.90;;;;;;5030590;28;20529;-87
2022/01/13 01:45:09;;;;;;;133.13;42.75;;;3.70;86.90;;;;;;5033084;28;20498;-88
2022/01/13 01:47:36;;;;;;;150.05;42.80;;;3.70;86.90;;;;;;5033246;28;20045;-87
2022/01/13 01:50:17;;;;;;;136.27;43.55;;;3.70;86.90;;;;;;5032906;28;20048;-88
2022/01/13 01:52:53;;;;;;;132.48;42.75;;;3.60;86.90;;;;;;5033238;28;20045;-88
2022/01/13 01:55:21;;;;;;;143.18;45.72;;;3.60;86.90;;;;;;5033240;28;20429;-87
2022/01/13 01:57:49;;;;;;;133.35;42.50;;;3.70;86.90;;;;;;5031202;28;20049;-88
2022/01/13 02:00:20;;;;;;;134.10;43.35;;;3.60;86.90;;;;;;5033064;28;20414;-88
2022/01/13 02:02:47;;;;;;;142.88;45.10;;;3.60;86.90;;;;;;5033167;28;20056;-88
2022/01/13 02:05:15;;;;;;;137.98;42.42;;;3.60;86.90;;;;;;5033012;28;20502;-87
2022/01/13 02:07:42;;;;;;;139.27;42.95;;;3.60;86.90;;;;;;5034718;28;20067;-87
2022/01/13 02:10:09;;;;;;;132.13;43.17;;;3.50;86.90;;;;;;5032988;28;20045;-89
2022/01/13 02:12:43;;;;;;;133.82;44.35;;;3.50;86.90;;;;;;5030259;28;20050;-89
2022/01/13 02:17:40;;;;;;;129.32;42.45;;;3.50;86.90;;;;;;5036703;28;20045;-88
2022/01/13 02:20:10;;;;;;;134.13;40.70;;;3.50;86.90;;;;;;5036852;28;20494;-88
2022/01/13 02:22:37;;;;;;;143.23;43.95;;;3.50;86.90;;;;;;5036870;28;20056;-88
2022/01/13 02:25:05;;;;;;;124.93;41.10;;;3.40;86.90;;;;;;5034950;28;20517;-87
2022/01/13 02:27:32;;;;;;;137.82;41.15;;;3.40;86.80;;;;;;5036117;28;20053;-88
2022/01/13 02:29:59;;;;;;;136.10;43.40;;;3.40;86.90;;;;;;5038383;28;20048;-87
2022/01/13 02:32:26;;;;;;;146.70;41.97;;;3.40;86.80;;;;;;5036123;28;20429;-88
2022/01/13 02:34:53;;;;;;;131.68;41.58;;;3.40;86.90;;;;;;5036703;28;20042;-89
2022/01/13 02:37:20;;;;;;;150.10;42.78;;;3.40;86.80;;;;;;5036686;28;20056;-89
2022/01/13 02:39:47;;;;;;;123.40;38.78;;;3.40;86.90;;;;;;5035742;28;20057;-88
2022/01/13 02:42:15;;;;;;;121.32;41.08;;;3.40;86.90;;;;;;5035263;28;20057;-88
2022/01/13 02:45:02;;;;;;;125.43;41.40;;;3.40;86.80;;;;;;5036535;28;20441;-88
2022/01/13 02:47:47;;;;;;;125.25;39.33;;;3.40;86.80;;;;;;5036002;28;20465;-88
2022/01/13 02:50:14;;;;;;;112.88;41.30;;;3.40;86.80;;;;;;5036289;28;20051;-88
2022/01/13 02:52:42;;;;;;;120.38;40.30;;;3.40;86.80;;;;;;5068216;28;20045;-89
2022/01/13 02:55:09;;;;;;;123.60;39.60;;;3.40;86.80;;;;;;5036446;28;20056;-88
2022/01/13 02:57:39;;;;;;;119.97;40.13;;;3.30;86.90;;;;;;5033565;28;20209;-87
2022/01/13 03:00:08;;;;;;;153.00;40.00;;;3.30;86.80;;;;;;5036169;28;20056;-88
2022/01/13 03:02:35;;;;;;;111.07;38.25;;;3.30;86.80;;;;;;5035575;28;20502;-90
2022/01/13 03:05:02;;;;;;;122.50;40.58;;;3.30;86.80;;;;;;5036039;28;20045;-89
2022/01/13 03:07:33;;;;;;;121.97;38.50;;;3.30;86.80;;;;;;5036064;28;20058;-88
2022/01/13 03:10:02;;;;;;;113.18;37.42;;;3.30;86.80;;;;;;5035099;28;20045;-89
2022/01/13 03:12:31;;;;;;;129.48;41.00;;;3.30;86.80;;;;;;5036446;28;20053;-88
2022/01/13 03:14:58;;;;;;;113.88;39.03;;;3.20;86.80;;;;;;5035630;28;20041;-88
2022/01/13 03:17:25;;;;;;;118.28;39.17;;;3.30;86.80;;;;;;5067741;28;20053;-88
2022/01/13 03:19:52;;;;;;;107.18;37.15;;;3.30;86.80;;;;;;5036238;28;20045;-88
2022/01/13 03:22:19;;;;;;;147.40;39.20;;;3.20;86.80;;;;;;5035831;28;20045;-87
2022/01/13 03:24:47;;;;;;;105.68;37.83;;;3.20;86.80;;;;;;5034944;28;20045;-88
2022/01/13 03:27:19;;;;;;;113.45;38.00;;;3.20;86.80;;;;;;5033807;28;20045;-89
2022/01/13 03:29:47;;;;;;;104.95;37.45;;;3.20;86.80;;;;;;5035312;28;20502;-89
2022/01/13 03:32:17;;;;;;;114.97;37.88;;;3.20;86.80;;;;;;5035537;28;20560;-89
2022/01/13 03:34:44;;;;;;;112.88;37.20;;;3.20;86.80;;;;;;5038059;28;20456;-89
2022/01/13 03:37:11;;;;;;;106.35;37.13;;;3.20;86.80;;;;;;5035067;28;20046;-88
2022/01/13 03:39:38;;;;;;;102.47;35.67;;;3.20;86.80;;;;;;5035308;28;20059;-89
2022/01/13 03:42:05;;;;;;;116.05;36.78;;;3.20;86.80;;;;;;5035279;28;20049;-89
2022/01/13 03:44:33;;;;;;;102.38;36.53;;;3.20;86.80;;;;;;5035014;28;20045;-88
2022/01/13 03:47:02;;;;;;;102.40;34.50;;;3.20;86.80;;;;;;5035423;28;20052;-87
2022/01/13 03:49:30;;;;;;;98.05;32.80;;;3.20;86.80;;;;;;5035382;28;20563;-88
2022/01/13 03:52:02;;;;;;;99.93;34.25;;;3.20;86.80;;;;;;5034368;28;20067;-87
2022/01/13 03:54:32;;;;;;;103.60;34.83;;;3.20;86.80;;;;;;5035935;28;20114;-88
2022/01/13 03:57:17;;;;;;;96.82;33.72;;;3.10;86.80;;;;;;5066989;28;20041;-89
2022/01/13 03:59:47;;;;;;;108.55;35.65;;;3.10;86.80;;;;;;5033493;28;20045;-89
2022/01/13 04:02:15;;;;;;;102.22;34.72;;;3.10;86.80;;;;;;5034944;28;20059;-89
2022/01/13 04:04:45;;;;;;;88.30;32.95;;;3.10;86.80;;;;;;5034043;28;20057;-88
2022/01/13 04:07:18;;;;;;;109.55;33.67;;;3.10;86.80;;;;;;5033736;28;20426;-87
2022/01/13 04:09:45;;;;;;;99.75;33.88;;;3.00;86.80;;;;;;5034164;28;20050;-87
2022/01/13 04:12:14;;;;;;;91.78;32.47;;;3.10;86.80;;;;;;5034948;28;20095;-89
2022/01/13 04:15:02;;;;;;;141.05;35.70;;;3.10;86.80;;;;;;5061514;28;20502;-89
2022/01/13 04:17:30;;;;;;;94.78;33.83;;;3.10;86.80;;;;;;5034674;28;20490;-88
2022/01/13 04:19:57;;;;;;;100.60;33.08;;;3.10;86.80;;;;;;5034795;28;20520;-88
2022/01/13 04:22:25;;;;;;;116.95;34.47;;;3.00;86.80;;;;;;5017904;28;20056;-89
2022/01/13 04:24:53;;;;;;;101.20;33.67;;;3.00;86.80;;;;;;5034299;28;20053;-89
2022/01/13 04:27:28;;;;;;;104.20;33.00;;;3.00;86.80;;;;;;5034640;28;20055;-88
2022/01/13 04:30:32;;;;;;;104.43;34.55;;;3.00;86.80;;;;;;5034547;28;20044;-89
2022/01/13 04:32:57;;;;;;;106.70;34.67;;;3.00;86.80;;;;;;5034262;28;20052;-88
2022/01/13 04:35:24;;;;;;;143.70;35.50;;;3.00;86.80;;;;;;5034544;28;20413;-88
2022/01/13 04:37:51;;;;;;;114.55;35.67;;;3.00;86.80;;;;;;5033834;28;20060;-89
2022/01/13 04:40:18;;;;;;;108.70;34.67;;;3.00;86.80;;;;;;5035134;28;20045;-88
2022/01/13 04:42:52;;;;;;;105.78;34.35;;;3.00;86.80;;;;;;5033804;28;20049;-88
2022/01/13 04:45:20;;;;;;;;;;;3.00;86.80;;;;;;5034784;28;20049;-89
2022/01/13 04:47:48;;;;;;;99.82;34.72;;;3.00;86.80;;;;;;5034293;28;19921;-88
2022/01/13 04:50:15;;;;;;;107.40;33.95;;;2.90;86.80;;;;;;5034107;28;20075;-88
2022/01/13 04:52:42;;;;;;;116.57;34.38;;;2.90;86.80;;;;;;5034177;28;20044;-89
2022/01/13 04:55:12;;;;;;;99.78;34.47;;;2.90;86.80;;;;;;5034227;28;20049;-88
2022/01/13 04:57:40;;;;;;;128.23;36.38;;;2.90;86.80;;;;;;5030225;28;20050;-88
2022/01/13 05:00:09;;;;;;;121.93;33.40;;;2.90;86.80;;;;;;5033985;28;20049;-88
2022/01/13 05:02:36;;;;;;;120.68;34.88;;;2.90;86.80;;;;;;5033777;28;20052;-88
2022/01/13 05:05:04;;;;;;;128.48;34.95;;;2.90;86.80;;;;;;5033968;28;20056;-87
2022/01/13 05:07:32;;;;;;;100.30;33.58;;;2.90;86.70;;;;;;5033869;28;20119;-89
2022/01/13 05:09:59;;;;;;;93.63;31.73;;;2.90;86.70;;;;;;5032885;28;20041;-88
2022/01/13 05:12:33;;;;;;;98.35;33.60;;;2.90;86.70;;;;;;5034680;28;20484;-88
2022/01/13 05:15:04;;;;;;;102.95;33.05;;;2.90;86.70;;;;;;5033959;28;20041;-88
2022/01/13 05:17:59;;;;;;;92.55;31.00;;;2.80;86.70;;;;;;5065596;28;20055;-88
2022/01/13 05:20:26;;;;;;;92.57;29.80;;;2.80;86.70;;;;;;5033445;28;20049;-88
2022/01/13 05:22:54;;;;;;;89.57;30.38;;;2.70;86.60;;;;;;5033600;28;20045;-88
2022/01/13 05:25:21;;;;;;;102.72;30.25;;;2.70;86.60;;;;;;5032473;28;20497;-88
2022/01/13 05:27:48;;;;;;;79.90;28.75;;;2.70;86.60;;;;;;5031470;28;20055;-88
2022/01/13 05:30:17;;;;;;;69.35;29.73;;;2.70;86.50;;;;;;5033390;28;20059;-88
2022/01/13 05:32:46;;;;;;;76.35;28.13;;;2.60;86.50;;;;;;5033382;28;20077;-89
2022/01/13 05:35:17;;;;;;;69.93;29.05;;;2.50;86.40;;;;;;5033378;28;20140;-88
2022/01/13 05:37:45;;;;;;;70.63;28.60;;;2.50;86.40;;;;;;5033496;28;20453;-88
2022/01/13 05:40:13;;;;;;;65.28;27.02;;;2.50;86.40;;;;;;5033094;28;20057;-88
2022/01/13 05:42:41;;;;;;;69.43;27.20;;;2.50;86.40;;;;;;5032575;28;20494;-88
2022/01/13 05:45:15;;;;;;;60.80;25.88;;;2.50;86.40;;;;;;5033241;28;20037;-89
2022/01/13 05:47:44;;;;;;;63.70;26.52;;;2.40;86.40;;;;;;5032145;28;20422;-88
2022/01/13 05:50:12;;;;;;;75.10;26.23;;;2.40;86.40;;;;;;5033008;28;20053;-88
2022/01/13 05:52:40;;;;;;;59.70;25.17;;;2.40;86.40;;;;;;5032037;28;20502;-89
2022/01/13 05:55:08;;;;;;;61.10;25.83;;;2.30;86.40;;;;;;5032638;28;20050;-89
2022/01/13 05:57:35;;;;;;;54.45;24.20;;;2.30;86.40;;;;;;5028973;28;20411;-89
2022/01/13 06:00:05;;;;;;;59.33;25.05;;;2.30;86.30;;;;;;5033124;28;20104;-88
2022/01/13 06:02:32;;;;;;;53.67;24.25;;;2.30;86.30;;;;;;5032712;28;20042;-89
2022/01/13 06:04:59;;;;;;;52.47;24.17;;;2.20;86.30;;;;;;5065003;28;20490;-87
2022/01/13 06:07:26;;;;;;;56.65;23.63;;;2.20;86.30;;;;;;5032931;28;20489;-88
2022/01/13 06:09:53;;;;;;;54.25;23.73;;;2.20;86.30;;;;;;5031858;28;20049;-88
2022/01/13 06:12:31;;;;;;;60.30;24.60;;;2.20;86.40;;;;;;5033138;28;20049;-88
2022/01/13 06:15:12;;;;;;;60.97;24.50;;;2.20;86.40;;;;;;5064867;28;20056;-88
2022/01/13 06:17:41;;;;;;;57.88;22.88;;;2.20;86.40;;;;;;5032802;28;20049;-88
2022/01/13 06:20:10;;;;;;;53.00;23.45;;;2.10;86.40;;;;;;5031643;28;20524;-88
2022/01/13 06:22:39;;;;;;;53.60;23.70;;;2.20;86.40;;;;;;5032855;28;20042;-88
2022/01/13 06:25:08;;;;;;;61.28;24.05;;;2.10;86.40;;;;;;5032284;28;20060;-88
2022/01/13 06:27:35;;;;;;;57.10;24.40;;;2.10;86.40;;;;;;5032055;28;20490;-88
2022/01/13 06:30:11;;;;;;;50.83;22.75;;;2.10;86.40;;;;;;5032770;28;20117;-89
2022/01/13 06:32:38;;;;;;;53.58;23.67;;;2.10;86.40;;;;;;5032937;28;20045;-88
2022/01/13 06:35:05;;;;;;;55.30;23.45;;;2.10;86.40;;;;;;5064708;28;20780;-89
2022/01/13 06:37:32;;;;;;;59.13;23.40;;;2.10;86.40;;;;;;5031697;28;20041;-88
2022/01/13 06:40:02;;;;;;;69.55;25.42;;;2.10;86.40;;;;;;5031259;28;20064;-88
2022/01/13 06:42:29;;;;;;;53.90;22.80;;;2.00;86.40;;;;;;5031936;28;20048;-88
2022/01/13 06:44:56;;;;;;;51.10;23.40;;;2.00;86.40;;;;;;5032599;28;20049;-89
2022/01/13 06:47:24;;;;;;;53.80;23.02;;;2.00;86.40;;;;;;5032839;28;20056;-89
2022/01/13 06:49:51;;;;;;;50.63;22.58;;;2.00;86.40;;;;;;5032620;28;20045;-88
2022/01/13 06:52:18;;;;;;;57.25;24.00;;;2.00;86.40;;;;;;5032785;28;20071;-88
2022/01/13 06:54:45;;;;;;;46.90;21.90;;;2.00;86.30;;;;;;5031760;28;20053;-88
2022/01/13 06:57:12;;;;;;;64.38;23.20;;;2.00;86.30;;;;;;5032594;28;20391;-88
2022/01/13 06:59:39;;;;;;;50.67;23.10;;;2.00;86.30;;;;;;5066852;28;20048;-87
2022/01/13 07:02:07;;;;;;;49.95;23.05;;;2.00;86.30;;;;;;5034192;28;20413;-87
2022/01/13 07:04:34;;;;;;;53.92;24.08;;;1.90;86.30;;;;;;5036264;28;20049;-88
2022/01/13 07:07:01;;;;;;;50.25;23.17;;;1.90;86.30;;;;;;5034811;28;20553;-88
2022/01/13 07:09:29;;;;;;;57.55;22.60;;;1.90;86.30;;;;;;5031584;28;20524;-88
2022/01/13 07:11:56;;;;;;;51.72;23.85;;;1.90;86.30;;;;;;5029017;28;20041;-88
2022/01/13 07:14:23;;;;;;;54.25;21.95;;;1.90;86.30;;;;;;5031507;28;20236;-88
2022/01/13 07:16:50;;;;;;;46.70;22.10;;;1.90;86.30;;;;;;5030723;28;20045;-88
2022/01/13 07:19:17;;;;;;;52.95;22.80;;;1.90;86.30;;;;;;5014993;28;20049;-88
2022/01/13 07:21:45;;;;;;;43.38;20.63;;;1.90;86.30;;;;;;5028283;28;20128;-88
2022/01/13 07:24:13;;;;;;;46.90;21.60;;;1.90;86.30;;;;;;5020205;28;20045;-88
2022/01/13 07:26:40;;;;;;;46.17;21.33;;;1.90;86.30;;;;;;5026476;28;20052;-87
2022/01/13 07:29:08;;;;;;;48.25;21.50;;;1.80;86.20;;;;;;5028532;28;20060;-89
2022/01/13 07:31:37;;;;;;;57.65;23.30;;;1.80;86.30;;;;;;5014843;28;20037;-87
2022/01/13 07:34:05;;;;;;;46.67;21.38;;;1.80;86.20;;;;;;5016832;28;20064;-88
2022/01/13 07:36:33;;;;;;;52.00;21.50;;;1.80;86.20;;;;;;5028722;28;20049;-88
2022/01/13 07:39:00;;;;;;;41.92;21.60;;;1.80;86.20;;;;;;5021605;28;20041;-87
2022/01/13 07:41:27;;;;;;;41.75;20.10;;;1.80;86.20;;;;;;5019013;28;20068;-88
2022/01/13 07:43:55;;;;;;;50.38;20.40;;;1.80;86.20;;;;;;5017973;28;20041;-89
2022/01/13 07:46:24;;;;;;;44.15;20.80;;;1.80;86.20;;;;;;5014629;28;20045;-88
2022/01/13 07:48:51;;;;;;;40.97;20.65;;;1.70;86.20;;;;;;5017632;28;20541;-89
2022/01/13 07:51:19;;;;;;;38.85;19.70;;;1.70;86.20;;;;;;5026281;28;20045;-88
2022/01/13 07:53:47;;;;;;;39.83;21.38;;;1.70;86.20;;;;;;5026953;28;20056;-88
2022/01/13 07:56:14;;;;;;;39.92;19.70;;;1.70;86.20;;;;;;5027539;28;20049;-87
2022/01/13 07:58:43;;;;;;;42.42;20.55;;;1.70;86.20;;;;;;5015456;28;20129;-88
2022/01/13 08:01:10;;;;;;;40.92;20.52;;;1.70;86.20;;;;;;5030224;28;20048;-87
2022/01/13 08:03:38;;;;;;;40.85;20.30;;;1.70;86.20;;;;;;5031764;28;20060;-87
2022/01/13 08:06:05;;;;;;;40.25;20.63;;;1.70;86.20;;;;;;5022868;28;20049;-88
2022/01/13 08:08:35;;;;;;;40.00;20.75;;;1.70;86.10;;;;;;5026306;28;20056;-87
2022/01/13 08:11:07;;;;;;;36.10;18.95;;;1.60;86.10;;;;;;5028893;28;20100;-87
2022/01/13 08:13:35;;;;;;;46.40;20.95;;;1.60;86.10;;;;;;5026582;28;20046;-87
2022/01/13 08:16:08;;;;;;;39.22;20.05;;;1.60;86.20;;;;;;5016066;28;20473;-87
2022/01/13 08:21:24;;;;;;;38.85;21.13;;;1.60;86.10;;;;;;5012186;28;20792;-87
2022/01/13 08:23:51;;;;;;;40.65;21.52;;;1.60;86.20;;;;;;5021365;28;20042;-88
2022/01/13 08:26:19;;;;;;;41.28;20.50;;;1.60;86.20;;;;;;5026485;28;20434;-87
2022/01/13 08:28:46;;;;;;;43.85;23.35;;;1.60;86.20;;;;;;5015065;28;20048;-87
2022/01/13 08:31:13;;;;;;;41.20;22.90;;;1.60;86.20;;;;;;5029560;28;20045;-87
2022/01/13 08:33:40;;;;;;;46.03;26.05;;;1.60;86.10;;;;;;5030517;28;20057;-87
2022/01/13 08:36:08;;;;;;;40.00;21.88;;;1.60;86.10;;;;;;5018678;28;20042;-88
2022/01/13 08:38:35;;;;;;;43.22;24.17;;;1.60;86.10;;;;;;5018126;28;20445;-87
2022/01/13 08:41:02;;;;;;;39.95;22.67;;;1.60;86.10;;;;;;5018028;28;20474;-87
2022/01/13 08:43:31;;;;;;;37.85;20.52;;;1.60;86.10;;;;;;5013426;28;20055;-87
2022/01/13 08:45:59;;;;;;;38.03;21.70;;;1.60;86.10;;;;;;5016118;28;20128;-87
2022/01/13 08:48:28;;;;;;;39.60;21.02;;;1.50;86.10;;;;;;5013804;28;20091;-87
2022/01/13 08:50:56;;;;;;;36.08;21.13;;;1.50;86.10;;;;;;5022145;28;20499;-87
2022/01/13 08:53:23;;;;;;;34.72;19.63;;;1.50;86.10;;;;;;5017513;28;20048;-88
2022/01/13 08:55:51;;;;;;;33.67;19.65;;;1.50;86.10;;;;;;5016412;28;20051;-88
2022/01/13 08:58:22;;;;;;;33.47;18.35;;;1.50;86.10;;;;;;5013626;28;20502;-89
2022/01/13 09:00:53;;;;;;;37.75;20.40;;;1.50;86.10;;;;;;5024101;28;20421;-87
2022/01/13 09:03:20;;;;;;;33.85;19.15;;;1.50;86.10;;;;;;5016908;28;20050;-89
2022/01/13 09:05:50;;;;;;;45.95;19.23;;;1.50;86.10;;;;;;5016668;28;20422;-89
2022/01/13 09:08:17;;;;;;;32.22;18.85;;;1.50;86.10;;;;;;5017020;28;20050;-88
2022/01/13 09:10:44;;;;;;;33.58;18.48;;;1.50;86.10;;;;;;5028480;28;20053;-88
2022/01/13 09:13:15;;;;;;;28.98;16.52;;;1.50;86.10;;;;;;5014176;28;20060;-88
2022/01/13 09:15:47;;;;;;;32.05;17.60;;;1.50;86.10;;;;;;5017267;28;20126;-88
2022/01/13 09:18:18;;;;;;;31.45;18.83;;;1.50;86.10;;;;;;5024220;28;20041;-88
2022/01/13 09:20:46;;;;;;;40.22;19.08;;;1.50;86.10;;;;;;5021262;28;20077;-88
2022/01/13 09:23:13;;;;;;;35.47;17.48;;;1.50;86.10;;;;;;5017059;28;20044;-87
2022/01/13 09:25:41;;;;;;;33.25;17.25;;;1.50;86.10;;;;;;5014133;28;20049;-87
2022/01/13 09:28:08;;;;;;;36.42;19.67;;;1.50;86.10;;;;;;5028106;28;20060;-88
2022/01/13 09:30:36;;;;;;;52.63;20.52;;;1.50;86.10;;;;;;5015749;28;20060;-86
2022/01/13 09:33:04;;;;;;;50.35;19.10;;;1.50;86.10;;;;;;5027394;28;20057;-88
2022/01/13 09:35:31;;;;;;;76.75;20.15;;;1.50;86.20;;;;;;5029603;28;20124;-88
2022/01/13 09:37:58;;;;;;;65.28;18.60;;;1.50;86.20;;;;;;5026434;28;20050;-88
2022/01/13 09:40:26;;;;;;;42.33;18.50;;;1.50;86.20;;;;;;5013512;28;20057;-88
2022/01/13 09:42:53;;;;;;;37.90;17.73;;;1.50;86.20;;;;;;5027192;28;20049;-88
2022/01/13 09:45:21;;;;;;;44.95;19.70;;;1.50;86.20;;;;;;5025789;28;20049;-89
2022/01/13 09:47:50;;;;;;;40.17;18.05;;;1.50;86.20;;;;;;5029563;28;20056;-88
2022/01/13 09:50:21;;;;;;;34.70;18.65;;;1.50;86.20;;;;;;5025133;28;20053;-89
2022/01/13 09:52:48;;;;;;;36.25;17.65;;;1.50;86.20;;;;;;5015525;28;20045;-89
2022/01/13 09:55:16;;;;;;;36.30;18.73;;;1.50;86.20;;;;;;5013726;28;20067;-87
2022/01/13 09:57:45;;;;;;;32.55;17.65;;;1.50;86.30;;;;;;5027991;28;20049;-87
2022/01/13 10:00:16;;;;;;;32.70;17.75;;;1.50;86.30;;;;;;5029838;28;20053;-88
2022/01/13 10:02:43;;;;;;;31.85;18.10;;;1.50;86.30;;;;;;5029317;28;20060;-87
2022/01/13 10:05:10;;;;;;;37.95;18.38;;;1.50;86.30;;;;;;5026063;28;20055;-88
2022/01/13 10:07:42;;;;;;;40.05;17.50;;;1.50;86.30;;;;;;5013999;28;20054;-87
2022/01/13 10:10:27;;;;;;;33.90;17.25;;;1.50;86.30;;;;;;5028417;28;20128;-88
2022/01/13 10:13:08;;;;;;;33.45;17.52;;;1.50;86.30;;;;;;5028664;28;20108;-89
2022/01/13 10:18:44;;;;;;;33.08;18.52;;;1.50;86.40;;;;;;5024316;28;20056;-90
2022/01/13 10:21:19;;;;;;;31.35;17.98;;;1.50;86.40;;;;;;5020167;28;20129;-89
2022/01/13 10:24:09;;;;;;;31.02;16.52;;;1.50;86.40;;;;;;5019612;28;20132;-89
2022/01/13 10:26:39;;;;;;;32.15;17.17;;;1.60;86.40;;;;;;5018886;28;20060;-88
2022/01/13 10:29:08;;;;;;;30.50;17.15;;;1.60;86.50;;;;;;5026683;28;20053;-88
2022/01/13 10:31:51;;;;;;;37.60;18.67;;;1.60;86.50;;;;;;5027748;28;20388;-88
2022/01/13 10:34:34;;;;;;;35.60;19.20;;;1.70;86.50;;;;;;5012099;28;20085;-89
2022/01/13 10:37:16;;;;;;;34.42;19.13;;;1.70;86.60;;;;;;5029683;28;20041;-88
2022/01/13 10:39:49;;;;;;;33.80;18.48;;;1.80;86.70;;;;;;5030608;28;20052;-88
2022/01/13 10:45:26;;;;;;;58.30;23.23;;;1.90;86.70;;;;;;5022207;28;20141;-89
2022/01/13 10:47:54;;;;;;;50.15;22.83;;;2.00;86.70;;;;;;5019806;28;20049;-90
2022/01/13 10:50:25;;;;;;;41.80;22.67;;;2.00;86.60;;;;;;5019879;28;20042;-88
2022/01/13 10:52:52;;;;;;;42.35;23.67;;;2.10;86.70;;;;;;5017244;28;20038;-89
2022/01/13 10:55:22;;;;;;;40.72;22.25;;;2.20;86.70;;;;;;5030926;28;20066;-89
2022/01/13 10:58:10;;;;;;;38.35;20.75;;;2.40;86.60;;;;;;5031462;28;20056;-89
2022/01/13 11:00:37;;;;;;;40.97;20.67;;;2.50;86.70;;;;;;5014882;28;20064;-89
2022/01/13 11:03:08;;;;;;;34.70;21.15;;;2.60;86.60;;;;;;5019741;28;20132;-89
2022/01/13 11:05:41;;;;;;;42.58;22.75;;;2.70;86.60;;;;;;5021504;28;20129;-88
2022/01/13 11:08:10;;;;;;;46.40;22.58;;;2.90;86.60;;;;;;5029668;28;20046;-88
2022/01/13 11:10:46;;;;;;;43.00;23.58;;;3.10;86.50;;;;;;5016667;28;20054;-89
2022/01/13 11:13:22;;;;;;;42.03;24.65;;;3.20;86.40;;;;;;5015295;28;20057;-90
2022/01/13 11:15:53;;;;;;;43.78;25.55;;;3.40;86.30;;;;;;5019601;28;20066;-90
2022/01/13 11:18:21;;;;;;;42.65;24.52;;;3.60;86.20;;;;;;5019593;28;20046;-90
2022/01/13 11:20:49;;;;;;;43.42;23.63;;;3.80;86.10;;;;;;5021109;28;20054;-90
2022/01/13 11:23:18;;;;;;;45.28;23.15;;;3.90;85.90;;;;;;5021944;28;20041;-91
2022/01/13 11:25:47;;;;;;;40.50;22.02;;;4.00;85.80;;;;;;5030500;28;20512;-91
2022/01/13 11:28:15;;;;;;;34.67;20.90;;;4.20;85.70;;;;;;5031540;28;20057;-91
2022/01/13 11:30:43;;;;;;;41.47;25.42;;;4.30;85.60;;;;;;5020085;28;20053;-91
2022/01/13 11:33:10;;;;;;;36.75;22.80;;;4.40;85.50;;;;;;5032005;28;20055;-91
2022/01/13 11:35:52;;;;;;;36.03;21.33;;;4.50;85.40;;;;;;5028763;28;20054;-90
2022/01/13 11:38:20;;;;;;;34.88;19.33;;;4.60;85.30;;;;;;5019830;28;20053;-88
2022/01/13 11:40:51;;;;;;;32.05;18.90;;;4.70;85.30;;;;;;5017755;28;20056;-89
2022/01/13 11:43:28;;;;;;;34.55;19.13;;;4.80;85.20;;;;;;5014723;28;20050;-89
2022/01/13 11:45:59;;;;;;;30.50;19.13;;;4.80;85.10;;;;;;5042895;28;20466;-90
2022/01/13 11:48:30;;;;;;;33.25;19.15;;;4.90;85.10;;;;;;5020657;28;20081;-89
2022/01/13 11:51:15;;;;;;;30.95;19.60;;;5.00;85.00;;;;;;5028499;28;20049;-90
2022/01/13 11:53:58;;;;;;;30.05;18.10;;;5.00;85.00;;;;;;5032354;28;20531;-91
2022/01/13 11:56:27;;;;;;;33.22;19.05;;;5.10;85.00;;;;;;5028016;28;20429;-89
2022/01/13 11:58:55;;;;;;;27.45;18.35;;;5.20;84.90;;;;;;5028058;28;20125;-90
2022/01/13 12:01:35;;;;;;;29.33;17.50;;;5.20;84.90;;;;;;5030390;28;20052;-89
2022/01/13 12:04:06;;;;;;;29.55;17.10;;;5.30;84.80;;;;;;5029574;28;20049;-91
2022/01/13 12:06:49;;;;;;;26.85;16.40;;;5.40;84.80;;;;;;5028712;28;20054;-90
2022/01/13 12:09:22;;;;;;;28.15;16.75;;;5.40;84.70;;;;;;5031286;28;20049;-91
2022/01/13 12:11:55;;;;;;;24.60;15.27;;;5.40;84.60;;;;;;5031235;28;20067;-89
2022/01/13 12:14:28;;;;;;;23.88;15.57;;;5.50;84.40;;;;;;5030979;28;20519;-89
2022/01/13 12:17:07;;;;;;;24.17;15.20;;;5.50;84.30;;;;;;5029798;28;20045;-89
2022/01/13 12:19:46;;;;;;;27.40;15.30;;;5.50;84.20;;;;;;5015835;28;20059;-88
2022/01/13 12:22:31;;;;;;;22.27;14.55;;;5.60;84.10;;;;;;5029465;28;20053;-87
2022/01/13 12:25:01;;;;;;;23.73;15.40;;;5.70;84.00;;;;;;5028481;28;20061;-87
2022/01/13 12:27:40;;;;;;;24.27;14.65;;;5.70;83.90;;;;;;5018112;28;20050;-87
2022/01/13 12:30:12;;;;;;;20.55;13.85;;;5.80;83.90;;;;;;5016519;28;20054;-86
2022/01/13 12:32:44;;;;;;;20.73;13.32;;;5.80;83.80;;;;;;5020641;28;20052;-88
2022/01/13 12:35:15;;;;;;;22.75;13.55;;;5.90;83.70;;;;;;5027067;28;20044;-87
2022/01/13 12:37:43;;;;;;;19.27;13.75;;;5.90;83.60;;;;;;5015454;28;20081;-88
2022/01/13 12:40:12;;;;;;;18.48;13.27;;;6.00;83.50;;;;;;5029757;28;20053;-88
2022/01/13 12:42:51;;;;;;;23.88;12.88;;;6.00;83.50;;;;;;5017421;28;20050;-89
2022/01/13 12:45:28;;;;;;;21.02;12.52;;;6.10;83.40;;;;;;5017486;28;20064;-89
2022/01/13 12:48:09;;;;;;;23.40;13.60;;;6.20;83.30;;;;;;5016319;28;20042;-87
2022/01/13 12:50:41;;;;;;;20.33;12.65;;;6.30;83.20;;;;;;5050908;28;20060;-87
2022/01/13 12:53:26;;;;;;;19.40;12.75;;;6.30;83.10;;;;;;5027708;28;20049;-88
2022/01/13 12:55:53;;;;;;;18.10;12.40;;;6.40;83.00;;;;;;5016335;28;20071;-88
2022/01/13 12:58:23;;;;;;;20.85;12.50;;;6.40;82.90;;;;;;5013672;28;20052;-87
2022/01/13 13:01:02;;;;;;;19.35;12.95;;;6.50;82.80;;;;;;5028194;28;20088;-87
2022/01/13 13:03:29;;;;;;;21.27;13.13;;;6.60;82.60;;;;;;5013083;28;20576;-87
2022/01/13 13:05:57;;;;;;;21.50;12.90;;;6.70;82.50;;;;;;5016954;28;20046;-87
2022/01/13 13:08:26;;;;;;;18.48;12.45;;;6.70;82.40;;;;;;5022379;28;20053;-88
2022/01/13 13:11:00;;;;;;;19.00;12.02;;;6.80;82.30;;;;;;5027993;28;20042;-86
2022/01/13 13:13:30;;;;;;;21.88;13.40;;;6.90;82.10;;;;;;5012974;28;20045;-85